Time;durP1;ratioP1;P1;durP2;ratioP2;P2;SDS_P1;SDS_P2;PMS_P1;PMS_P2;Temp;Humidity;BMP_temperature;BMP_pressure;BME280_temperature;BME280_humidity;BME280_pressure;Samples;Min_cycle;Max_cycle;Signal;HPM_P1;HPM_P2
2023/04/05 00:00:25;;;;;;;0.80;0.80;;;16.80;65.10;;;;;;5036836;28;20037;-75
2023/04/05 00:02:51;;;;;;;1.40;0.70;;;16.80;65.10;;;;;;5008846;28;20044;-74
2023/04/05 00:05:28;;;;;;;1.00;1.00;;;16.80;65.10;;;;;;5025485;28;20458;-73
2023/04/05 00:08:00;;;;;;;1.05;1.00;;;16.80;65.10;;;;;;5033254;28;20111;-74
2023/04/05 00:10:27;;;;;;;0.85;0.85;;;16.80;65.10;;;;;;5030743;28;20534;-74
2023/04/05 00:12:52;;;;;;;0.90;0.90;;;16.80;65.10;;;;;;5035722;28;20044;-73
2023/04/05 00:15:18;;;;;;;0.75;0.75;;;16.80;65.10;;;;;;5035092;28;20398;-74
2023/04/05 00:17:44;;;;;;;1.00;1.00;;;16.80;65.10;;;;;;5033809;28;20037;-74
2023/04/05 00:20:10;;;;;;;0.63;0.63;;;16.80;65.10;;;;;;5023667;28;20032;-74
2023/04/05 00:22:37;;;;;;;0.95;0.95;;;16.80;65.10;;;;;;5031739;28;20559;-74
2023/04/05 00:25:03;;;;;;;0.82;0.82;;;16.80;65.10;;;;;;5035372;28;20103;-74
2023/04/05 00:27:29;;;;;;;0.98;0.98;;;16.80;65.10;;;;;;5040902;28;20034;-74
2023/04/05 00:29:55;;;;;;;0.93;0.93;;;16.80;64.90;;;;;;5033838;28;20052;-73
2023/04/05 00:32:20;;;;;;;1.10;1.10;;;16.80;64.90;;;;;;5037403;28;20025;-73
2023/04/05 00:34:46;;;;;;;0.70;0.70;;;16.70;65.00;;;;;;5023987;28;20560;-74
2023/04/05 00:37:11;;;;;;;0.68;0.68;;;16.80;65.10;;;;;;5039862;28;20038;-74
2023/04/05 00:39:40;;;;;;;0.70;0.70;;;16.80;65.00;;;;;;5042933;28;20052;-74
2023/04/05 00:42:06;;;;;;;1.02;0.90;;;16.80;65.00;;;;;;5041219;28;20037;-74
2023/04/05 00:44:35;;;;;;;0.98;0.98;;;16.80;64.90;;;;;;5039144;28;20064;-74
2023/04/05 00:47:01;;;;;;;1.25;0.60;;;16.70;64.80;;;;;;5039984;28;20437;-73
2023/04/05 00:49:28;;;;;;;0.80;0.80;;;16.80;64.90;;;;;;5039665;28;20090;-73
2023/04/05 00:51:55;;;;;;;0.80;0.80;;;16.70;65.00;;;;;;5039389;28;20052;-73
2023/04/05 00:54:20;;;;;;;0.90;0.90;;;16.70;64.80;;;;;;5038030;28;20053;-73
2023/04/05 00:56:46;;;;;;;1.13;1.13;;;16.70;64.80;;;;;;5036422;28;20495;-73
2023/04/05 00:59:11;;;;;;;1.00;1.00;;;16.70;64.90;;;;;;5040614;28;20064;-73
2023/04/05 01:01:39;;;;;;;0.82;0.82;;;16.70;64.90;;;;;;5038358;28;20037;-74
2023/04/05 01:04:06;;;;;;;0.85;0.85;;;16.70;65.00;;;;;;5040176;28;20045;-73
2023/04/05 01:06:46;;;;;;;0.77;0.77;;;16.70;65.00;;;;;;5034654;28;20041;-73
2023/04/05 01:09:40;;;;;;;0.80;0.80;;;16.70;65.10;;;;;;5041950;28;20033;-74
2023/04/05 01:12:07;;;;;;;1.00;1.00;;;16.70;65.00;;;;;;5035327;28;20124;-74
2023/04/05 01:14:51;;;;;;;0.60;0.60;;;16.70;65.00;;;;;;5039043;28;20042;-74
2023/04/05 01:17:22;;;;;;;1.05;0.95;;;16.60;65.00;;;;;;5036395;28;20037;-73
2023/04/05 01:19:57;;;;;;;0.80;0.80;;;16.60;65.00;;;;;;5039875;28;20049;-74
2023/04/05 01:22:44;;;;;;;1.00;1.00;;;16.60;64.80;;;;;;5037979;28;20036;-73
2023/04/05 01:25:41;;;;;;;1.00;1.00;;;16.60;65.00;;;;;;5037347;28;20041;-73
2023/04/05 01:28:38;;;;;;;0.90;0.90;;;16.60;65.00;;;;;;5066614;28;20889;-74
2023/04/05 01:31:08;;;;;;;0.73;0.73;;;16.60;65.10;;;;;;5072564;28;20071;-73
2023/04/05 01:33:45;;;;;;;0.80;0.80;;;16.60;65.10;;;;;;5076833;28;20033;-74
2023/04/05 01:36:14;;;;;;;0.73;0.73;;;16.60;65.10;;;;;;5063992;28;20028;-73
2023/04/05 01:38:39;;;;;;;0.85;0.85;;;16.60;65.10;;;;;;5061041;28;20052;-73
2023/04/05 01:41:05;;;;;;;0.85;0.85;;;16.60;65.00;;;;;;5043453;28;20564;-73
2023/04/05 01:43:31;;;;;;;0.70;0.70;;;16.60;65.10;;;;;;5009665;28;20033;-74
2023/04/05 01:45:56;;;;;;;0.65;0.65;;;16.60;65.80;;;;;;5014117;28;20522;-73
2023/04/05 01:48:22;;;;;;;0.73;0.73;;;16.60;65.00;;;;;;5044873;28;20029;-73
2023/04/05 01:50:47;;;;;;;0.95;0.95;;;16.60;65.20;;;;;;5040787;28;20047;-74
2023/04/05 01:53:13;;;;;;;0.68;0.68;;;16.60;65.10;;;;;;5042963;28;20037;-73
2023/04/05 01:55:39;;;;;;;0.60;0.60;;;16.60;65.00;;;;;;5055126;28;20069;-74
2023/04/05 01:58:04;;;;;;;0.70;0.70;;;16.60;65.00;;;;;;5036439;28;20037;-74
2023/04/05 02:00:30;;;;;;;1.10;1.10;;;16.50;65.00;;;;;;5045558;28;20124;-73
2023/04/05 02:02:55;;;;;;;0.65;0.65;;;16.50;65.00;;;;;;5043175;28;20599;-73
2023/04/05 02:05:21;;;;;;;1.00;1.00;;;16.50;65.80;;;;;;5046053;28;20045;-73
2023/04/05 02:07:46;;;;;;;0.65;0.65;;;16.50;65.00;;;;;;5027378;28;20550;-73
2023/04/05 02:10:13;;;;;;;1.00;1.00;;;16.50;65.00;;;;;;5019799;28;20058;-73
2023/04/05 02:12:38;;;;;;;0.85;0.70;;;16.50;65.00;;;;;;5012919;28;20486;-74
2023/04/05 02:15:04;;;;;;;1.00;1.00;;;16.50;65.20;;;;;;5003417;28;20037;-73
2023/04/05 02:17:32;;;;;;;0.90;0.90;;;16.50;65.10;;;;;;5004656;28;20065;-73
2023/04/05 02:20:01;;;;;;;0.95;0.90;;;16.50;65.00;;;;;;4995286;28;20377;-73
2023/04/05 02:22:28;;;;;;;1.10;1.10;;;16.50;65.10;;;;;;4995588;28;20038;-73
2023/04/05 02:24:54;;;;;;;0.90;0.90;;;16.50;65.10;;;;;;5003184;28;20172;-73
2023/04/05 02:27:20;;;;;;;0.90;0.90;;;16.40;64.90;;;;;;4998674;28;20116;-73
2023/04/05 02:29:45;;;;;;;1.10;1.10;;;16.40;64.90;;;;;;4997393;28;20034;-73
2023/04/05 02:32:11;;;;;;;0.80;0.80;;;16.50;65.00;;;;;;4995471;28;20037;-73
2023/04/05 02:34:40;;;;;;;1.17;1.00;;;16.50;65.00;;;;;;5001007;28;20400;-73
2023/04/05 02:37:05;;;;;;;0.80;0.80;;;16.40;64.80;;;;;;4997546;28;20041;-73
2023/04/05 02:39:31;;;;;;;0.88;0.88;;;16.50;64.90;;;;;;5000107;28;20034;-73
2023/04/05 02:41:57;;;;;;;1.00;1.00;;;16.40;64.80;;;;;;5002440;28;20488;-73
2023/04/05 02:44:23;;;;;;;0.90;0.90;;;16.40;64.90;;;;;;5001991;28;20055;-73
2023/04/05 02:46:49;;;;;;;0.70;0.70;;;16.40;65.00;;;;;;4999957;28;20038;-74
2023/04/05 02:49:15;;;;;;;0.80;0.80;;;16.40;65.00;;;;;;4996596;28;20429;-73
2023/04/05 02:51:40;;;;;;;0.80;0.80;;;16.40;65.00;;;;;;4999107;28;20504;-74
2023/04/05 02:54:06;;;;;;;0.80;0.80;;;16.40;64.90;;;;;;4996479;28;20049;-73
2023/04/05 02:56:31;;;;;;;0.85;0.85;;;16.40;64.90;;;;;;5000103;28;20033;-73
2023/04/05 02:58:57;;;;;;;0.80;0.80;;;16.40;64.90;;;;;;4996340;28;20038;-73
2023/04/05 03:01:23;;;;;;;0.77;0.77;;;16.40;64.90;;;;;;5009885;28;20530;-73
2023/04/05 03:03:49;;;;;;;0.70;0.70;;;16.40;64.80;;;;;;5012537;28;20064;-73
2023/04/05 03:06:14;;;;;;;0.80;0.80;;;16.40;64.80;;;;;;5012758;28;20038;-73
2023/04/05 03:08:45;;;;;;;0.60;0.60;;;16.40;64.90;;;;;;5000463;28;20038;-73
2023/04/05 03:11:10;;;;;;;0.68;0.68;;;16.40;65.60;;;;;;5034210;28;20083;-73
2023/04/05 03:13:36;;;;;;;0.88;0.73;;;16.40;64.80;;;;;;5040331;28;20060;-74
2023/04/05 03:16:02;;;;;;;0.80;0.80;;;16.40;64.80;;;;;;5045358;28;20037;-73
2023/04/05 03:18:31;;;;;;;0.73;0.73;;;16.30;65.50;;;;;;5024907;28;20045;-73
2023/04/05 03:20:56;;;;;;;1.00;1.00;;;16.30;64.70;;;;;;5042649;28;20465;-73
2023/04/05 03:23:27;;;;;;;0.75;0.73;;;16.40;64.80;;;;;;5044732;28;20037;-73
2023/04/05 03:26:00;;;;;;;0.90;0.90;;;16.40;65.60;;;;;;5041117;28;20120;-73
2023/04/05 03:28:25;;;;;;;0.73;0.73;;;16.40;64.80;;;;;;5010484;28;20099;-73
2023/04/05 03:30:51;;;;;;;0.70;0.70;;;16.40;64.80;;;;;;5043142;28;20053;-73
2023/04/05 03:33:17;;;;;;;0.77;0.77;;;16.40;64.80;;;;;;5042355;28;20545;-73
2023/04/05 03:35:43;;;;;;;0.98;0.98;;;16.40;64.80;;;;;;5039682;28;20112;-73
2023/04/05 03:38:09;;;;;;;0.68;0.68;;;16.40;64.80;;;;;;5043214;28;20049;-73
2023/04/05 03:40:34;;;;;;;0.82;0.82;;;16.40;64.80;;;;;;5042618;28;20585;-73
2023/04/05 03:43:00;;;;;;;0.75;0.75;;;16.40;64.70;;;;;;5044749;28;20048;-73
2023/04/05 03:45:26;;;;;;;0.98;0.98;;;16.40;64.80;;;;;;5030867;28;20059;-73
2023/04/05 03:47:52;;;;;;;0.98;0.98;;;16.30;64.70;;;;;;5063247;28;20141;-73
2023/04/05 03:50:17;;;;;;;0.90;0.90;;;16.40;64.70;;;;;;5045916;28;20067;-73
2023/04/05 03:52:43;;;;;;;1.20;1.20;;;16.30;64.70;;;;;;5044550;28;20494;-73
2023/04/05 03:55:09;;;;;;;0.80;0.80;;;16.30;64.60;;;;;;5062640;28;20343;-73
2023/04/05 03:57:36;;;;;;;0.90;0.90;;;16.40;65.00;;;;;;5063075;28;20040;-73
2023/04/05 04:00:12;;;;;;;1.10;1.10;;;16.40;64.70;;;;;;5062342;28;20032;-73
2023/04/05 04:02:41;;;;;;;1.10;1.10;;;16.40;64.60;;;;;;5042201;28;20032;-73
2023/04/05 04:05:07;;;;;;;0.90;0.90;;;16.40;64.70;;;;;;5046168;28;20100;-73
2023/04/05 04:07:32;;;;;;;1.05;1.05;;;16.30;64.60;;;;;;5046441;28;20119;-73
2023/04/05 04:09:58;;;;;;;1.00;1.00;;;16.30;64.70;;;;;;5043106;28;20056;-74
2023/04/05 04:12:24;;;;;;;0.90;0.90;;;16.30;64.70;;;;;;5061957;28;20509;-73
2023/04/05 04:14:49;;;;;;;1.10;1.10;;;16.30;64.50;;;;;;5061113;28;20044;-73
2023/04/05 04:17:31;;;;;;;1.25;1.25;;;16.30;64.50;;;;;;5043953;28;20509;-74
2023/04/05 04:19:57;;;;;;;1.00;1.00;;;16.30;64.50;;;;;;5041612;28;20028;-74
2023/04/05 04:22:25;;;;;;;1.20;1.10;;;16.30;64.50;;;;;;5060684;28;20295;-73
2023/04/05 04:24:54;;;;;;;0.98;0.90;;;16.30;64.50;;;;;;5061941;28;20045;-73
2023/04/05 04:27:19;;;;;;;1.00;1.00;;;16.30;64.70;;;;;;5056685;28;20044;-73
2023/04/05 04:29:46;;;;;;;0.80;0.80;;;16.30;65.20;;;;;;5061351;28;20050;-73
2023/04/05 04:32:15;;;;;;;1.25;1.00;;;16.30;64.50;;;;;;5061921;28;20114;-73
2023/04/05 04:34:43;;;;;;;1.10;1.10;;;16.30;64.50;;;;;;5045860;28;20037;-74
2023/04/05 04:37:17;;;;;;;1.00;1.00;;;16.30;64.50;;;;;;5023448;28;20040;-73
2023/04/05 04:39:46;;;;;;;0.90;0.90;;;16.30;64.50;;;;;;5041653;28;20045;-74
2023/04/05 04:42:12;;;;;;;0.85;0.85;;;16.30;65.20;;;;;;5043475;28;20037;-73
2023/04/05 04:44:38;;;;;;;1.30;1.30;;;16.30;64.20;;;;;;5026326;28;20037;-73
2023/04/05 04:47:11;;;;;;;0.90;0.90;;;16.20;64.40;;;;;;5042065;28;20049;-74
2023/04/05 04:49:40;;;;;;;1.15;1.15;;;16.30;64.40;;;;;;5042650;28;20048;-73
2023/04/05 04:52:06;;;;;;;1.25;1.15;;;16.20;64.40;;;;;;5041893;28;20124;-73
2023/04/05 04:54:33;;;;;;;0.98;0.98;;;16.20;64.30;;;;;;5006382;28;20132;-73
2023/04/05 04:57:00;;;;;;;1.10;1.08;;;16.20;64.20;;;;;;5021699;28;20505;-74
2023/04/05 04:59:25;;;;;;;1.25;1.15;;;16.20;64.30;;;;;;5038977;28;20049;-74
2023/04/05 05:01:51;;;;;;;1.10;1.10;;;16.20;64.40;;;;;;5043260;28;20563;-74
2023/04/05 05:04:17;;;;;;;1.00;1.00;;;16.20;64.30;;;;;;5025864;28;20068;-72
2023/04/05 05:06:42;;;;;;;1.30;1.20;;;16.20;64.20;;;;;;5044023;28;20099;-76
2023/04/05 05:09:08;;;;;;;0.90;0.90;;;16.30;64.20;;;;;;5033312;28;20049;-74
2023/04/05 05:11:33;;;;;;;1.30;1.30;;;16.30;64.50;;;;;;5021826;28;20590;-74
2023/04/05 05:13:59;;;;;;;1.02;1.02;;;16.30;64.60;;;;;;5023055;28;20041;-74
2023/04/05 05:16:26;;;;;;;0.93;0.93;;;16.30;64.40;;;;;;5022561;28;20422;-73
2023/04/05 05:18:52;;;;;;;1.20;1.13;;;16.30;64.30;;;;;;5045653;28;20506;-74
2023/04/05 05:21:18;;;;;;;1.20;1.05;;;16.30;64.50;;;;;;5026953;28;20110;-74
2023/04/05 05:23:43;;;;;;;1.40;1.30;;;16.30;64.70;;;;;;5011217;28;20049;-77
2023/04/05 05:26:09;;;;;;;2.35;1.40;;;16.20;64.80;;;;;;5029757;28;20800;-73
2023/04/05 05:28:35;;;;;;;1.15;1.10;;;16.30;65.40;;;;;;5029556;28;20048;-73
2023/04/05 05:31:02;;;;;;;0.93;0.93;;;16.30;65.30;;;;;;5046183;28;20048;-73
2023/04/05 05:33:28;;;;;;;1.25;1.20;;;16.30;65.10;;;;;;5048293;28;20093;-73
2023/04/05 05:35:53;;;;;;;1.00;1.00;;;16.30;66.00;;;;;;5026254;28;20032;-74
2023/04/05 05:38:19;;;;;;;0.82;0.82;;;16.30;66.30;;;;;;5024402;28;20052;-75
2023/04/05 05:40:45;;;;;;;2.20;0.98;;;16.30;66.70;;;;;;5039899;28;20112;-76
2023/04/05 05:43:10;;;;;;;1.08;1.00;;;16.30;66.30;;;;;;5011647;28;20557;-75
2023/04/05 05:45:36;;;;;;;1.25;1.10;;;16.30;66.90;;;;;;5027365;28;20052;-75
2023/04/05 05:48:02;;;;;;;2.90;1.38;;;16.30;67.20;;;;;;5042279;28;20041;-74
2023/04/05 05:50:31;;;;;;;2.17;1.20;;;16.30;66.70;;;;;;5021247;28;20060;-74
2023/04/05 05:53:00;;;;;;;1.40;1.30;;;16.30;66.80;;;;;;5012301;28;20509;-75
2023/04/05 05:55:25;;;;;;;1.17;1.17;;;16.30;66.50;;;;;;5011167;28;20045;-75
2023/04/05 05:57:51;;;;;;;1.80;1.17;;;16.30;66.70;;;;;;5026436;28;20126;-76
2023/04/05 06:00:18;;;;;;;1.35;1.35;;;16.30;66.60;;;;;;5044930;28;20147;-76
2023/04/05 06:02:44;;;;;;;1.20;1.20;;;16.30;67.00;;;;;;5035614;28;20059;-75
2023/04/05 06:05:10;;;;;;;1.35;1.25;;;16.30;67.00;;;;;;5054454;28;20045;-76
2023/04/05 06:07:36;;;;;;;1.40;1.30;;;16.30;67.30;;;;;;5036952;28;20069;-76
2023/04/05 06:10:03;;;;;;;1.40;1.30;;;16.30;69.40;;;;;;5029697;28;20577;-76
2023/04/05 06:12:28;;;;;;;2.85;1.20;;;16.30;68.60;;;;;;5027566;28;20036;-76
2023/04/05 06:14:54;;;;;;;2.17;1.42;;;16.30;67.80;;;;;;5058989;28;20552;-75
2023/04/05 06:17:19;;;;;;;1.73;1.50;;;16.30;68.10;;;;;;5047121;28;20070;-76
2023/04/05 06:19:45;;;;;;;1.60;1.50;;;16.20;68.80;;;;;;5030862;28;20165;-75
2023/04/05 06:22:10;;;;;;;3.05;1.23;;;16.20;69.70;;;;;;5031906;28;20075;-76
2023/04/05 06:24:36;;;;;;;0.88;0.88;;;16.20;69.50;;;;;;5048835;28;20043;-76
2023/04/05 06:27:01;;;;;;;1.40;1.30;;;16.20;69.70;;;;;;5047266;28;20582;-75
2023/04/05 06:29:27;;;;;;;3.08;1.33;;;16.20;70.00;;;;;;5031389;28;20284;-76
2023/04/05 06:31:54;;;;;;;2.42;1.30;;;16.20;70.00;;;;;;5029635;28;20036;-75
2023/04/05 06:34:20;;;;;;;1.50;1.40;;;16.20;69.50;;;;;;5065071;28;20101;-76
2023/04/05 06:36:46;;;;;;;1.33;1.23;;;16.20;70.00;;;;;;5065406;28;20029;-76
2023/04/05 06:39:12;;;;;;;2.15;1.50;;;16.20;69.80;;;;;;5063554;28;20548;-76
2023/04/05 06:41:38;;;;;;;1.30;1.30;;;16.20;69.10;;;;;;5073731;28;20097;-75
2023/04/05 06:44:03;;;;;;;1.20;1.20;;;16.20;69.70;;;;;;5025576;28;20040;-75
2023/04/05 06:46:29;;;;;;;2.67;1.20;;;16.20;69.90;;;;;;5075074;28;20063;-75
2023/04/05 06:48:54;;;;;;;4.88;1.52;;;16.30;68.70;;;;;;5046763;28;20042;-75
2023/04/05 06:51:20;;;;;;;1.52;1.40;;;16.20;68.40;;;;;;5062341;28;20044;-75
2023/04/05 06:53:46;;;;;;;1.20;1.20;;;16.20;68.60;;;;;;5064782;28;20489;-75
2023/04/05 06:56:11;;;;;;;1.40;1.40;;;16.20;69.00;;;;;;5060933;28;20113;-75
2023/04/05 06:58:37;;;;;;;1.25;1.15;;;16.20;69.40;;;;;;5047814;28;20117;-75
2023/04/05 07:01:03;;;;;;;1.00;1.00;;;16.20;69.40;;;;;;5064994;28;20471;-75
2023/04/05 07:03:29;;;;;;;1.85;1.45;;;16.30;69.60;;;;;;5063911;28;20040;-76
2023/04/05 07:05:57;;;;;;;1.05;0.95;;;16.30;69.50;;;;;;5044110;28;20415;-76
2023/04/05 07:08:23;;;;;;;1.38;1.30;;;16.20;70.00;;;;;;5044917;28;20037;-75
2023/04/05 07:10:49;;;;;;;2.28;1.33;;;16.20;70.20;;;;;;5007648;28;20045;-75
2023/04/05 07:13:15;;;;;;;1.42;1.33;;;16.20;70.30;;;;;;5017710;28;20087;-75
2023/04/05 07:15:42;;;;;;;2.33;1.40;;;16.20;70.40;;;;;;5001271;28;20099;-78
2023/04/05 07:18:07;;;;;;;1.33;1.20;;;16.20;70.30;;;;;;5029967;28;20147;-75
2023/04/05 07:20:33;;;;;;;2.20;1.20;;;16.30;69.00;;;;;;5005458;28;20508;-75
2023/04/05 07:22:58;;;;;;;1.10;1.10;;;16.30;70.20;;;;;;5004333;28;20132;-76
2023/04/05 07:25:24;;;;;;;1.38;1.27;;;16.20;71.00;;;;;;5007381;28;20050;-76
2023/04/05 07:27:51;;;;;;;1.48;1.30;;;16.30;69.40;;;;;;5005085;28;20053;-76
2023/04/05 07:30:17;;;;;;;1.58;1.48;;;16.30;70.10;;;;;;5002191;28;20057;-76
2023/04/05 07:32:42;;;;;;;0.85;0.85;;;16.30;70.30;;;;;;5012031;28;20042;-76
2023/04/05 07:35:08;;;;;;;1.00;0.90;;;16.30;70.50;;;;;;5016772;28;20072;-76
2023/04/05 07:37:34;;;;;;;1.83;1.10;;;16.30;70.50;;;;;;5002269;28;20048;-76
2023/04/05 07:40:00;;;;;;;1.00;1.00;;;16.30;70.40;;;;;;4984746;28;20042;-77
2023/04/05 07:42:26;;;;;;;1.25;0.98;;;16.30;70.60;;;;;;5008590;28;20057;-76
2023/04/05 07:44:52;;;;;;;1.10;1.00;;;16.30;70.30;;;;;;5035311;28;20041;-77
2023/04/05 07:47:18;;;;;;;1.38;1.27;;;16.30;70.60;;;;;;5012865;28;20042;-76
2023/04/05 07:49:43;;;;;;;1.40;1.30;;;16.30;71.10;;;;;;5010698;28;20041;-76
2023/04/05 07:52:09;;;;;;;1.05;1.05;;;16.40;70.20;;;;;;5002104;28;20503;-76
2023/04/05 07:54:38;;;;;;;1.25;1.20;;;16.30;70.70;;;;;;5019160;28;20042;-76
2023/04/05 07:57:04;;;;;;;1.85;1.13;;;16.40;70.40;;;;;;5014068;28;20041;-76
2023/04/05 07:59:30;;;;;;;1.40;1.20;;;16.40;69.60;;;;;;4977926;28;20424;-76
2023/04/05 08:01:55;;;;;;;1.70;1.60;;;16.40;69.40;;;;;;5012675;28;20068;-76
2023/04/05 08:04:22;;;;;;;2.30;1.73;;;16.50;69.40;;;;;;4988496;28;20053;-76
2023/04/05 08:06:47;;;;;;;1.55;1.45;;;16.50;70.70;;;;;;4997740;28;20684;-76
2023/04/05 08:09:13;;;;;;;3.33;1.13;;;16.40;71.20;;;;;;4992567;28;20140;-76
2023/04/05 08:11:39;;;;;;;1.40;1.30;;;16.50;70.40;;;;;;5032012;28;20047;-76
2023/04/05 08:14:05;;;;;;;1.20;1.20;;;16.50;69.60;;;;;;5024250;28;20053;-76
2023/04/05 08:16:31;;;;;;;1.27;1.17;;;16.50;70.80;;;;;;5009438;28;20048;-76
2023/04/05 08:18:56;;;;;;;3.17;1.40;;;16.50;70.60;;;;;;5043858;28;20048;-77
2023/04/05 08:21:22;;;;;;;2.03;1.30;;;16.50;71.00;;;;;;4989828;28;20041;-76
2023/04/05 08:23:49;;;;;;;1.40;1.30;;;16.60;70.40;;;;;;5001667;28;20578;-76
2023/04/05 08:26:15;;;;;;;1.35;1.25;;;16.60;71.10;;;;;;5035064;28;20056;-75
2023/04/05 08:28:40;;;;;;;1.55;1.20;;;16.50;69.50;;;;;;5043478;28;20405;-75
2023/04/05 08:31:06;;;;;;;2.13;1.33;;;16.60;69.00;;;;;;5011258;28;20509;-76
2023/04/05 08:33:32;;;;;;;1.33;1.30;;;16.60;68.80;;;;;;5026045;28;20130;-76
2023/04/05 08:36:02;;;;;;;1.75;1.40;;;16.60;69.80;;;;;;5024968;28;20417;-78
2023/04/05 08:38:27;;;;;;;1.58;1.48;;;16.60;69.20;;;;;;5009999;28;20052;-77
2023/04/05 08:40:53;;;;;;;1.48;1.38;;;16.70;69.30;;;;;;5022395;28;20033;-77
2023/04/05 08:43:46;;;;;;;1.00;1.00;;;16.70;69.30;;;;;;5024679;28;20044;-78
2023/04/05 08:46:13;;;;;;;0.85;0.85;;;16.70;69.00;;;;;;4995798;28;20041;-77
2023/04/05 08:48:40;;;;;;;1.95;1.10;;;16.70;68.50;;;;;;5010401;28;20037;-78
2023/04/05 08:51:08;;;;;;;1.40;1.30;;;16.70;69.00;;;;;;4672217;28;10000568;-78
2023/04/05 08:53:33;;;;;;;1.08;1.00;;;16.70;68.20;;;;;;4691061;28;9999846;-75
2023/04/05 08:56:00;;;;;;;1.25;1.25;;;16.60;69.40;;;;;;5024597;28;22304;-75
2023/04/05 08:58:25;;;;;;;1.42;1.30;;;16.70;69.60;;;;;;5025750;28;20493;-74
2023/04/05 09:00:51;;;;;;;1.20;1.20;;;16.70;68.50;;;;;;5048963;28;20036;-76
2023/04/05 09:03:20;;;;;;;2.03;1.30;;;16.70;69.00;;;;;;5027048;28;20410;-77
2023/04/05 09:05:48;;;;;;;1.67;1.58;;;16.70;68.50;;;;;;5018959;28;20074;-77
2023/04/05 09:08:14;;;;;;;1.30;1.20;;;16.70;68.20;;;;;;5020736;28;20033;-75
2023/04/05 09:10:40;;;;;;;0.90;0.90;;;16.70;68.20;;;;;;5042227;28;20048;-76
2023/04/05 09:13:07;;;;;;;1.23;1.10;;;16.70;68.90;;;;;;5014073;28;20041;-76
2023/04/05 09:15:35;;;;;;;0.90;0.90;;;16.70;68.70;;;;;;5004787;28;20398;-75
2023/04/05 09:18:01;;;;;;;2.10;1.55;;;16.80;68.70;;;;;;5028357;28;20098;-76
2023/04/05 09:20:27;;;;;;;1.05;1.05;;;16.70;68.50;;;;;;5047540;28;20036;-75
2023/04/05 09:22:52;;;;;;;0.95;0.95;;;16.80;68.30;;;;;;5050953;28;20406;-75
2023/04/05 09:25:38;;;;;;;1.25;1.20;;;16.80;68.40;;;;;;5023788;28;20037;-75
2023/04/05 09:28:04;;;;;;;1.30;1.20;;;16.80;68.60;;;;;;5029861;28;20071;-75
2023/04/05 09:30:30;;;;;;;1.10;1.10;;;16.80;68.70;;;;;;5023740;28;20114;-75
2023/04/05 09:32:56;;;;;;;1.50;1.40;;;16.80;68.50;;;;;;5040628;28;20436;-75
2023/04/05 09:35:26;;;;;;;1.08;0.93;;;16.80;69.40;;;;;;5041227;28;20042;-75
2023/04/05 09:37:52;;;;;;;1.25;1.25;;;16.80;68.40;;;;;;5039708;28;20033;-76
2023/04/05 09:40:18;;;;;;;1.52;1.25;;;16.80;68.20;;;;;;5021688;28;20037;-76
2023/04/05 09:42:44;;;;;;;1.38;1.08;;;16.80;68.20;;;;;;5064994;28;20052;-76
2023/04/05 09:45:10;;;;;;;1.45;1.35;;;16.80;68.20;;;;;;5043434;28;20999;-76
2023/04/05 09:47:36;;;;;;;1.42;1.20;;;16.80;68.40;;;;;;5045723;28;20039;-75
2023/04/05 09:50:22;;;;;;;1.30;1.20;;;16.80;68.30;;;;;;5046617;28;20105;-75
2023/04/05 09:52:48;;;;;;;1.40;1.35;;;16.80;68.20;;;;;;5071883;28;20116;-75
2023/04/05 09:55:23;;;;;;;1.20;1.10;;;16.80;68.10;;;;;;5062193;28;20124;-74
2023/04/05 09:57:48;;;;;;;1.10;1.10;;;16.90;68.00;;;;;;5048293;28;20029;-74
2023/04/05 10:00:21;;;;;;;1.63;1.02;;;16.90;68.00;;;;;;5074352;28;20043;-74
2023/04/05 10:02:48;;;;;;;1.10;1.10;;;16.90;67.90;;;;;;5039874;28;20025;-74
2023/04/05 10:05:14;;;;;;;1.85;0.93;;;16.90;67.80;;;;;;5042310;28;20048;-74
2023/04/05 10:07:41;;;;;;;1.05;1.02;;;16.90;67.70;;;;;;5028458;28;20029;-74
2023/04/05 10:10:08;;;;;;;1.10;1.10;;;17.00;67.70;;;;;;5045077;28;20542;-75
2023/04/05 10:12:33;;;;;;;2.33;1.00;;;17.00;67.50;;;;;;5041242;28;20041;-77
2023/04/05 10:14:59;;;;;;;2.30;1.10;;;17.00;67.50;;;;;;5025974;28;20048;-74
2023/04/05 10:17:41;;;;;;;2.15;1.25;;;17.00;68.20;;;;;;5044437;28;20068;-74
2023/04/05 10:20:17;;;;;;;2.67;1.27;;;17.00;67.40;;;;;;5026804;28;20044;-74
2023/04/05 10:23:11;;;;;;;1.02;1.02;;;17.10;67.60;;;;;;5046690;28;20045;-73
2023/04/05 10:25:45;;;;;;;2.03;1.00;;;17.10;67.20;;;;;;5027559;28;20049;-77
2023/04/05 10:28:17;;;;;;;0.90;0.90;;;17.10;67.10;;;;;;5026456;28;20041;-75
2023/04/05 10:30:45;;;;;;;0.93;0.93;;;17.20;66.80;;;;;;5044210;28;20053;-77
2023/04/05 10:33:16;;;;;;;3.22;1.10;;;17.20;66.90;;;;;;5058173;28;20040;-76
2023/04/05 10:36:00;;;;;;;1.20;0.90;;;17.20;66.80;;;;;;5027248;28;20052;-75
2023/04/05 10:38:27;;;;;;;1.60;1.20;;;17.20;66.70;;;;;;5042081;28;20506;-76
2023/04/05 10:40:55;;;;;;;1.48;1.38;;;17.20;66.70;;;;;;5025971;28;20831;-76
2023/04/05 10:43:22;;;;;;;2.40;1.30;;;17.20;66.50;;;;;;5037527;28;20080;-77
2023/04/05 10:45:50;;;;;;;2.25;1.10;;;17.20;66.40;;;;;;5010681;28;20055;-76
2023/04/05 10:48:43;;;;;;;3.53;1.20;;;17.20;66.40;;;;;;5024434;28;20418;-77
2023/04/05 10:51:09;;;;;;;1.50;1.40;;;17.20;66.30;;;;;;5052048;28;21108;-77
2023/04/05 10:53:35;;;;;;;1.83;1.10;;;17.10;66.30;;;;;;5054213;28;20759;-77
2023/04/05 10:56:01;;;;;;;1.60;1.50;;;17.10;66.50;;;;;;5012024;28;20060;-76
2023/04/05 10:58:27;;;;;;;2.80;1.20;;;17.10;66.60;;;;;;5026243;28;20044;-76
2023/04/05 11:00:53;;;;;;;2.17;1.10;;;17.10;67.30;;;;;;5029361;28;20048;-76
2023/04/05 11:03:41;;;;;;;1.10;1.10;;;17.20;66.70;;;;;;5024719;28;20092;-77
2023/04/05 11:06:24;;;;;;;1.10;1.10;;;17.20;66.70;;;;;;5043022;28;20052;-77
2023/04/05 11:08:54;;;;;;;1.52;1.20;;;17.20;66.70;;;;;;5030434;28;20094;-76
2023/04/05 11:11:21;;;;;;;1.20;1.10;;;17.20;66.60;;;;;;5042677;28;20549;-77
2023/04/05 11:13:47;;;;;;;1.05;1.05;;;17.20;66.70;;;;;;5044110;28;20122;-77
2023/04/05 11:16:13;;;;;;;0.90;0.90;;;17.20;67.50;;;;;;5042983;28;20041;-77
2023/04/05 11:18:44;;;;;;;1.08;0.98;;;17.20;66.70;;;;;;5027473;28;20134;-77
2023/04/05 11:21:09;;;;;;;0.90;0.90;;;17.20;66.60;;;;;;5038137;28;20048;-77
2023/04/05 11:23:58;;;;;;;1.00;1.00;;;17.20;66.50;;;;;;5046096;28;20041;-76
2023/04/05 11:26:24;;;;;;;1.08;1.05;;;17.20;66.50;;;;;;5042379;28;20173;-77
2023/04/05 11:28:50;;;;;;;1.27;1.17;;;17.20;66.40;;;;;;5009832;28;20037;-76
2023/04/05 11:31:19;;;;;;;1.05;0.80;;;17.20;66.40;;;;;;5027518;28;20053;-77
2023/04/05 11:33:45;;;;;;;2.13;1.15;;;17.20;66.40;;;;;;5053711;28;20167;-77
2023/04/05 11:36:11;;;;;;;1.45;1.27;;;17.20;67.20;;;;;;5040019;28;20516;-77
2023/04/05 11:38:37;;;;;;;1.33;1.23;;;17.20;66.30;;;;;;5026339;28;20037;-77
2023/04/05 11:41:20;;;;;;;0.88;0.88;;;17.20;66.30;;;;;;5044631;28;20514;-77
2023/04/05 11:43:50;;;;;;;0.80;0.80;;;17.20;66.30;;;;;;5035213;28;20041;-77
2023/04/05 11:46:17;;;;;;;0.88;0.82;;;17.20;66.30;;;;;;5037312;28;20050;-77
2023/04/05 11:48:47;;;;;;;1.02;1.00;;;17.20;66.30;;;;;;5040259;28;20044;-76
2023/04/05 11:51:13;;;;;;;0.85;0.75;;;17.20;66.10;;;;;;5035124;28;20576;-77
2023/04/05 11:53:39;;;;;;;2.83;1.33;;;17.20;66.20;;;;;;5036960;28;20120;-76
2023/04/05 11:56:12;;;;;;;0.80;0.80;;;17.20;66.20;;;;;;5033514;28;20525;-77
2023/04/05 11:58:38;;;;;;;2.10;0.90;;;17.20;66.10;;;;;;5035928;28;20041;-77
2023/04/05 12:01:05;;;;;;;0.73;0.73;;;17.30;66.10;;;;;;5035889;28;20540;-77
2023/04/05 12:03:31;;;;;;;0.70;0.70;;;17.30;66.00;;;;;;5041328;28;20048;-77
2023/04/05 12:05:58;;;;;;;1.05;1.05;;;17.30;66.00;;;;;;5039241;28;20041;-77
2023/04/05 12:08:37;;;;;;;0.90;0.90;;;17.30;66.00;;;;;;5017931;28;20033;-77
2023/04/05 12:11:06;;;;;;;0.75;0.75;;;17.30;66.00;;;;;;5033477;28;20049;-76
2023/04/05 12:13:32;;;;;;;1.10;1.00;;;17.30;65.90;;;;;;5038752;28;20068;-77
2023/04/05 12:15:58;;;;;;;3.92;0.60;;;17.30;65.70;;;;;;5023560;28;20124;-76
2023/04/05 12:18:25;;;;;;;0.95;0.95;;;17.30;65.70;;;;;;5036863;28;20045;-76
2023/04/05 12:20:52;;;;;;;0.85;0.85;;;17.30;65.70;;;;;;5039668;28;20489;-77
2023/04/05 12:23:18;;;;;;;1.20;0.77;;;17.30;65.70;;;;;;5037807;28;20458;-77
2023/04/05 12:25:52;;;;;;;1.25;0.75;;;17.30;65.70;;;;;;5036368;28;20045;-76
2023/04/05 12:28:17;;;;;;;2.13;0.90;;;17.30;65.60;;;;;;5039645;28;20046;-76
2023/04/05 12:30:58;;;;;;;0.60;0.60;;;17.30;65.70;;;;;;5039624;28;20279;-76
2023/04/05 12:33:31;;;;;;;0.52;0.52;;;17.30;65.50;;;;;;5039890;28;20044;-76
2023/04/05 12:35:57;;;;;;;1.05;0.98;;;17.30;65.50;;;;;;5040534;28;20059;-76
2023/04/05 12:38:26;;;;;;;0.63;0.60;;;17.30;65.50;;;;;;5036386;28;20053;-76
2023/04/05 12:40:51;;;;;;;0.63;0.63;;;17.30;65.50;;;;;;5040138;28;20045;-77
2023/04/05 12:43:20;;;;;;;0.77;0.77;;;17.30;65.40;;;;;;5017653;28;20052;-76
2023/04/05 12:45:49;;;;;;;0.80;0.80;;;17.30;65.40;;;;;;5058228;28;20077;-76
2023/04/05 12:48:22;;;;;;;0.60;0.60;;;17.30;65.40;;;;;;5038408;28;20530;-77